^^
Saratoga-Weather Station Historical Data
Daily Summary for August 3, 2020 Units:  Metric    English   Both
Daily Weekly Monthly Yearly Custom
  High: Low: Average:
Temperature: 21.4 °C 15.8 °C 18 °C
Dew Point: 15.2 °C 12.5 °C 13.4 °C
Humidity: 88% 59% 75%
Wind Speed: 14.3km/h 0km/h 2.3km/h
Wind Gust: 17.7km/h - -
Wind- - West
Pressure: 1013.2 hPa 1010.5 hPa -
Precipitation: 0.2 mm    
Historical Graphs
 
 
Tabular Data for August 3, 2020
Time Temperature Dew Point Pressure Wind Wind Speed Wind Gust Humidity Rainfall Rate (Hourly) solar
00:00 19.2 °C 12.7 °C 1012.9 hPa West 4.7 km/h 4.8 km/h 66% 0.0 mm 0 W/m2
00:05 19.2 °C 12.9 °C 1013.2 hPa WSW 3.2 km/h 4.8 km/h 67% 0.0 mm 0 W/m2
00:10 19.2 °C 12.9 °C 1013.2 hPa SW 6.4 km/h 6.4 km/h 67% 0.0 mm 0 W/m2
00:15 19.2 °C 12.9 °C 1012.9 hPa West 3.2 km/h 4.8 km/h 67% 0.0 mm 0 W/m2
00:20 19.2 °C 13.1 °C 1013.2 hPa WNW 3.2 km/h 6.4 km/h 68% 0.0 mm 0 W/m2
00:26 19.1 °C 13.1 °C 1013.2 hPa SW 4.7 km/h 4.8 km/h 68% 0.0 mm 0 W/m2
00:31 19.1 °C 13.1 °C 1013.2 hPa West 4.7 km/h 6.4 km/h 68% 0.0 mm 0 W/m2
00:36 18.9 °C 13.1 °C 1013.2 hPa West 1.4 km/h 4.8 km/h 69% 0.0 mm 0 W/m2
00:41 18.8 °C 13 °C 1013.2 hPa West 3.2 km/h 6.4 km/h 69% 0.0 mm 0 W/m2
00:46 18.7 °C 13.1 °C 1012.9 hPa West 1.4 km/h 4.8 km/h 70% 0.0 mm 0 W/m2
00:51 18.6 °C 13 °C 1013.2 hPa West 3.2 km/h 6.4 km/h 70% 0.0 mm 0 W/m2
00:56 18.5 °C 12.9 °C 1013.2 hPa West 1.4 km/h 3.2 km/h 70% 0.0 mm 0 W/m2
01:01 18.4 °C 13 °C 1013.2 hPa WSW 1.4 km/h 4.8 km/h 71% 0.0 mm 0 W/m2
01:06 18.3 °C 13 °C 1013.2 hPa West 3.2 km/h 4.8 km/h 71% 0.0 mm 0 W/m2
01:11 18.3 °C 13.2 °C 1013.2 hPa West 3.2 km/h 4.8 km/h 72% 0.0 mm 0 W/m2
01:16 18.3 °C 13.2 °C 1013.2 hPa West 3.2 km/h 4.8 km/h 72% 0.0 mm 0 W/m2
01:21 18.2 °C 13.1 °C 1013.2 hPa West 3.2 km/h 3.2 km/h 72% 0.0 mm 0 W/m2
01:26 18.1 °C 13 °C 1013.2 hPa West 3.2 km/h 4.8 km/h 72% 0.0 mm 0 W/m2
01:31 18 °C 13.1 °C 1012.9 hPa WSW 3.2 km/h 4.8 km/h 73% 0.0 mm 0 W/m2
01:36 17.9 °C 13 °C 1013.2 hPa West 3.2 km/h 9.7 km/h 73% 0.0 mm 0 W/m2
01:41 17.9 °C 13.2 °C 1012.9 hPa Calm   6.4 km/h 74% 0.0 mm 0 W/m2
01:46 17.8 °C 13.1 °C 1013.2 hPa West 3.2 km/h 4.8 km/h 74% 0.0 mm 0 W/m2
01:52 17.8 °C 13.1 °C 1012.9 hPa WNW 1.4 km/h 6.4 km/h 74% 0.0 mm 0 W/m2
01:57 17.7 °C 13 °C 1012.9 hPa West 3.2 km/h 3.2 km/h 74% 0.0 mm 0 W/m2
02:02 17.7 °C 13.2 °C 1012.9 hPa West 3.2 km/h 4.8 km/h 75% 0.0 mm 0 W/m2
02:07 17.6 °C 13.1 °C 1012.9 hPa Calm   4.8 km/h 75% 0.0 mm 0 W/m2
02:12 17.6 °C 13.1 °C 1012.9 hPa West 1.4 km/h 1.6 km/h 75% 0.0 mm 0 W/m2
02:17 17.6 °C 13.1 °C 1012.9 hPa West 1.4 km/h 3.2 km/h 75% 0.0 mm 0 W/m2
02:22 17.5 °C 13 °C 1012.9 hPa West 1.4 km/h 4.8 km/h 75% 0.0 mm 0 W/m2
02:27 17.4 °C 13.1 °C 1012.9 hPa Calm   3.2 km/h 76% 0.0 mm 0 W/m2
02:32 17.3 °C 13 °C 1012.9 hPa West 1.4 km/h 4.8 km/h 76% 0.0 mm 0 W/m2
02:37 17.2 °C 13.1 °C 1012.9 hPa Calm     77% 0.0 mm 0 W/m2
02:42 17.1 °C 13 °C 1012.9 hPa WSW 1.4 km/h 3.2 km/h 77% 0.0 mm 0 W/m2
02:47 17.1 °C 13 °C 1012.9 hPa WSW 3.2 km/h 4.8 km/h 77% 0.0 mm 0 W/m2
02:52 17.1 °C 13.2 °C 1012.9 hPa Calm   1.6 km/h 78% 0.0 mm 0 W/m2
02:57 17 °C 13.1 °C 1012.9 hPa WSW 1.4 km/h 3.2 km/h 78% 0.0 mm 0 W/m2
03:02 16.9 °C 13 °C 1012.9 hPa SW 1.4 km/h 3.2 km/h 78% 0.0 mm 0 W/m2
03:07 17 °C 13.1 °C 1012.9 hPa Calm   4.8 km/h 78% 0.0 mm 0 W/m2
03:12 17 °C 13.1 °C 1012.9 hPa West 1.4 km/h 1.6 km/h 78% 0.0 mm 0 W/m2
03:17 16.9 °C 13 °C 1012.5 hPa WSW 1.4 km/h 3.2 km/h 78% 0.0 mm 0 W/m2
03:22 16.8 °C 12.9 °C 1012.5 hPa Calm     78% 0.0 mm 0 W/m2
03:27 16.7 °C 13 °C 1012.5 hPa Calm     79% 0.0 mm 0 W/m2
03:32 16.7 °C 13 °C 1012.5 hPa Calm     79% 0.0 mm 0 W/m2
03:37 16.6 °C 12.9 °C 1012.5 hPa Calm   1.6 km/h 79% 0.0 mm 0 W/m2
03:42 16.6 °C 12.9 °C 1012.5 hPa Calm   1.6 km/h 79% 0.0 mm 0 W/m2
03:47 16.6 °C 12.9 °C 1012.5 hPa WSW 1.4 km/h 1.6 km/h 79% 0.0 mm 0 W/m2
03:52 16.6 °C 12.9 °C 1012.5 hPa Calm   1.6 km/h 79% 0.0 mm 0 W/m2
03:57 16.6 °C 12.9 °C 1012.5 hPa Calm   1.6 km/h 79% 0.0 mm 0 W/m2
04:02 16.6 °C 12.9 °C 1012.5 hPa Calm   1.6 km/h 79% 0.0 mm 0 W/m2
04:07 16.6 °C 12.9 °C 1012.5 hPa Calm   3.2 km/h 79% 0.0 mm 0 W/m2
04:12 16.7 °C 13 °C 1012.2 hPa Calm   1.6 km/h 79% 0.0 mm 0 W/m2
04:17 16.7 °C 13 °C 1012.2 hPa Calm   3.2 km/h 79% 0.0 mm 0 W/m2
04:22 16.8 °C 13.1 °C 1012.2 hPa WNW 1.4 km/h 1.6 km/h 79% 0.0 mm 0 W/m2
04:28 16.8 °C 13.1 °C 1012.2 hPa Calm     79% 0.0 mm 0 W/m2
04:33 16.8 °C 13.1 °C 1012.2 hPa Calm     79% 0.0 mm 0 W/m2
04:38 16.8 °C 13.1 °C 1012.2 hPa Calm   1.6 km/h 79% 0.0 mm 0 W/m2
04:43 16.7 °C 13 °C 1012.2 hPa Calm     79% 0.0 mm 0 W/m2
04:48 16.7 °C 13 °C 1012.2 hPa Calm   1.6 km/h 79% 0.0 mm 0 W/m2
04:53 16.7 °C 13.2 °C 1012.2 hPa Calm   3.2 km/h 80% 0.0 mm 0 W/m2
04:58 16.6 °C 13.1 °C 1012.2 hPa Calm   1.6 km/h 80% 0.0 mm 0 W/m2
05:03 16.6 °C 12.9 °C 1012.2 hPa NW 4.7 km/h 4.8 km/h 79% 0.0 mm 0 W/m2
05:08 16.7 °C 13 °C 1012.2 hPa NW 3.2 km/h 3.2 km/h 79% 0.0 mm 0 W/m2
05:13 16.8 °C 13.1 °C 1012.2 hPa Calm   1.6 km/h 79% 0.0 mm 0 W/m2
05:18 16.8 °C 13.1 °C 1012.2 hPa Calm   1.6 km/h 79% 0.0 mm 0 W/m2
05:23 16.7 °C 13 °C 1012.2 hPa SW 1.4 km/h 3.2 km/h 79% 0.0 mm 0 W/m2
05:28 16.7 °C 13 °C 1012.2 hPa Calm   1.6 km/h 79% 0.0 mm 0 W/m2
05:33 16.6 °C 12.9 °C 1012.2 hPa West 1.4 km/h 1.6 km/h 79% 0.0 mm 0 W/m2
05:38 16.6 °C 12.9 °C 1012.2 hPa Calm   8 km/h 79% 0.0 mm 0 W/m2
05:43 16.7 °C 13 °C 1012.2 hPa West 1.4 km/h 4.8 km/h 79% 0.0 mm 0 W/m2
05:48 16.8 °C 12.9 °C 1012.2 hPa West 1.4 km/h 6.4 km/h 78% 0.0 mm 0 W/m2
05:53 16.8 °C 12.9 °C 1012.2 hPa West 3.2 km/h 3.2 km/h 78% 0.0 mm 0 W/m2
05:58 16.8 °C 12.9 °C 1012.2 hPa WNW 3.2 km/h 3.2 km/h 78% 0.0 mm 0 W/m2
06:03 16.8 °C 12.9 °C 1012.2 hPa Calm   3.2 km/h 78% 0.0 mm 0 W/m2
06:08 16.7 °C 13 °C 1012.2 hPa WNW 1.4 km/h 3.2 km/h 79% 0.0 mm 5 W/m2
06:13 16.7 °C 13 °C 1012.2 hPa Calm   1.6 km/h 79% 0.0 mm 7 W/m2
06:19 16.6 °C 12.9 °C 1012.2 hPa Calm     79% 0.0 mm 11 W/m2
06:24 16.6 °C 12.9 °C 1012.5 hPa Calm   1.6 km/h 79% 0.0 mm 12 W/m2
06:29 16.5 °C 12.8 °C 1012.2 hPa SW 3.2 km/h 3.2 km/h 79% 0.0 mm 19 W/m2
06:34 16.4 °C 12.7 °C 1012.5 hPa Calm   1.6 km/h 79% 0.0 mm 25 W/m2
06:39 16.4 °C 12.7 °C 1012.2 hPa SE 3.2 km/h 3.2 km/h 79% 0.0 mm 26 W/m2
06:44 16.5 °C 12.7 °C 1012.5 hPa Calm   1.6 km/h 78% 0.0 mm 28 W/m2
06:49 16.5 °C 12.7 °C 1012.5 hPa Calm   1.6 km/h 78% 0.0 mm 26 W/m2
06:54 16.5 °C 12.7 °C 1012.5 hPa Calm   4.8 km/h 78% 0.0 mm 28 W/m2
06:59 16.6 °C 12.7 °C 1012.5 hPa Calm   1.6 km/h 78% 0.0 mm 37 W/m2
07:04 16.6 °C 12.7 °C 1012.5 hPa Calm   4.8 km/h 78% 0.0 mm 40 W/m2
07:09 16.6 °C 12.7 °C 1012.5 hPa Calm     78% 0.0 mm 35 W/m2
07:14 16.6 °C 12.7 °C 1012.5 hPa Calm   3.2 km/h 78% 0.0 mm 30 W/m2
07:19 16.6 °C 12.7 °C 1012.5 hPa Calm   3.2 km/h 78% 0.0 mm 32 W/m2
07:24 16.7 °C 12.8 °C 1012.5 hPa NNE 1.4 km/h 3.2 km/h 78% 0.0 mm 37 W/m2
07:29 16.7 °C 12.8 °C 1012.5 hPa Calm   1.6 km/h 78% 0.0 mm 44 W/m2
07:35 16.7 °C 12.6 °C 1012.5 hPa ENE 3.2 km/h 4.8 km/h 77% 0.0 mm 47 W/m2
07:40 16.7 °C 12.6 °C 1012.5 hPa WNW 1.4 km/h 3.2 km/h 77% 0.0 mm 51 W/m2
07:45 16.7 °C 12.6 °C 1012.2 hPa Calm   1.6 km/h 77% 0.0 mm 51 W/m2
07:50 16.7 °C 12.6 °C 1012.2 hPa Calm   3.2 km/h 77% 0.0 mm 54 W/m2
07:55 16.8 °C 12.7 °C 1012.2 hPa Calm   4.8 km/h 77% 0.0 mm 58 W/m2
08:00 16.8 °C 12.7 °C 1012.2 hPa Calm   1.6 km/h 77% 0.0 mm 54 W/m2
08:05 16.8 °C 12.7 °C 1012.2 hPa Calm   4.8 km/h 77% 0.0 mm 49 W/m2
08:10 16.8 °C 12.5 °C 1012.2 hPa Calm   1.6 km/h 76% 0.0 mm 53 W/m2
08:15 16.9 °C 12.6 °C 1012.2 hPa NE 1.4 km/h 1.6 km/h 76% 0.0 mm 67 W/m2
08:20 16.9 °C 12.8 °C 1012.2 hPa Calm     77% 0.0 mm 74 W/m2
08:25 16.9 °C 12.6 °C 1012.2 hPa West 3.2 km/h 4.8 km/h 76% 0.0 mm 74 W/m2
08:30 17 °C 12.7 °C 1012.2 hPa Calm   1.6 km/h 76% 0.0 mm 79 W/m2
08:35 17.1 °C 12.8 °C 1012.2 hPa Calm   4.8 km/h 76% 0.0 mm 58 W/m2
08:40 17.1 °C 12.6 °C 1012.2 hPa ENE 1.4 km/h 4.8 km/h 75% 0.0 mm 42 W/m2
08:45 17.1 °C 12.6 °C 1012.2 hPa North 1.4 km/h 1.6 km/h 75% 0.0 mm 33 W/m2
08:50 17.1 °C 12.6 °C 1012.2 hPa NE 1.4 km/h 4.8 km/h 75% 0.0 mm 26 W/m2
08:55 17.1 °C 12.6 °C 1012.2 hPa NNW 3.2 km/h 3.2 km/h 75% 0.0 mm 25 W/m2
09:00 17.1 °C 12.6 °C 1012.2 hPa NNW 4.7 km/h 4.8 km/h 75% 0.0 mm 23 W/m2
09:05 17 °C 12.7 °C 1012.2 hPa Calm   1.6 km/h 76% 0.0 mm 21 W/m2
09:10 17 °C 12.9 °C 1012.2 hPa Calm   1.6 km/h 77% 0.0 mm 21 W/m2
09:15 16.9 °C 13 °C 1012.2 hPa Calm     78% 0.0 mm 21 W/m2
09:20 16.8 °C 12.9 °C 1012.2 hPa WNW 1.4 km/h 3.2 km/h 78% 0.0 mm 25 W/m2
09:25 16.7 °C 13.2 °C 1011.9 hPa Calm   3.2 km/h 80% 0.0 mm 26 W/m2
09:30 16.6 °C 13.3 °C 1012.2 hPa WNW 1.4 km/h 1.6 km/h 81% 0.0 mm 25 W/m2
09:35 16.5 °C 13.6 °C 1012.2 hPa WNW 1.4 km/h 1.6 km/h 83% 0.2 mm 23 W/m2
09:40 16.4 °C 13.9 °C 1011.9 hPa Calm     85% 0.2 mm 28 W/m2
09:45 16.3 °C 14 °C 1011.9 hPa WNW 4.8 km/h 4.8 km/h 86% 0.2 mm 28 W/m2
09:50 16.1 °C 13.8 °C 1012.2 hPa West 1.4 km/h 3.2 km/h 86% 0.2 mm 32 W/m2
09:55 16 °C 13.8 °C 1011.9 hPa West 3.2 km/h 4.8 km/h 87% 0.2 mm 37 W/m2
10:00 15.8 °C 13.6 °C 1012.2 hPa West 3.2 km/h 3.2 km/h 87% 0.2 mm 44 W/m2
10:05 15.8 °C 13.8 °C 1012.2 hPa West 1.4 km/h 3.2 km/h 88% 0.2 mm 56 W/m2
10:10 15.8 °C 13.8 °C 1011.9 hPa Calm     88% 0.2 mm 60 W/m2
10:15 15.8 °C 13.8 °C 1012.2 hPa Calm   1.6 km/h 88% 0.2 mm 72 W/m2
10:20 15.9 °C 13.9 °C 1011.9 hPa WSW 1.4 km/h 4.8 km/h 88% 0.2 mm 88 W/m2
10:25 16 °C 14 °C 1011.9 hPa Calm   3.2 km/h 88% 0.2 mm 111 W/m2
10:30 16.1 °C 14.1 °C 1011.9 hPa WSW 1.4 km/h 1.6 km/h 88% 0.2 mm 142 W/m2
10:35 16.3 °C 14.3 °C 1011.9 hPa WSW 1.4 km/h 1.6 km/h 88% 0.0 mm 172 W/m2
10:40 16.6 °C 14.6 °C 1011.9 hPa SSW 1.4 km/h 3.2 km/h 88% 0.0 mm 229 W/m2
10:45 16.8 °C 14.3 °C 1011.9 hPa West 1.4 km/h 4.8 km/h 85% 0.0 mm 279 W/m2
10:50 17.1 °C 14.4 °C 1011.9 hPa Calm     84% 0.0 mm 288 W/m2
10:55 17.4 °C 14.3 °C 1011.9 hPa WNW 3.2 km/h 4.8 km/h 82% 0.0 mm 274 W/m2
11:00 17.7 °C 14.4 °C 1011.9 hPa West 1.4 km/h 3.2 km/h 81% 0.0 mm 244 W/m2
11:05 17.9 °C 14.4 °C 1011.9 hPa WNW 3.2 km/h 4.8 km/h 80% 0.0 mm 272 W/m2
11:10 18.1 °C 14 °C 1011.9 hPa WNW 1.4 km/h 1.6 km/h 77% 0.0 mm 295 W/m2
11:16 18.3 °C 14.2 °C 1011.9 hPa Calm   3.2 km/h 77% 0.0 mm 306 W/m2
11:21 18.4 °C 13.9 °C 1011.9 hPa Calm     75% 0.0 mm 246 W/m2
11:26 18.7 °C 14 °C 1011.9 hPa Calm   1.6 km/h 74% 0.0 mm 178 W/m2
11:31 18.8 °C 14.5 °C 1011.9 hPa West 3.2 km/h 3.2 km/h 76% 0.0 mm 179 W/m2
11:36 18.7 °C 14.6 °C 1011.9 hPa Calm   3.2 km/h 77% 0.0 mm 218 W/m2
11:41 18.8 °C 14.9 °C 1011.9 hPa West 6.4 km/h 6.4 km/h 78% 0.0 mm 223 W/m2
11:46 18.8 °C 14.7 °C 1011.9 hPa Calm   3.2 km/h 77% 0.0 mm 183 W/m2
11:51 18.8 °C 14.5 °C 1011.9 hPa West 3.2 km/h 3.2 km/h 76% 0.0 mm 214 W/m2
11:56 18.7 °C 14.2 °C 1011.9 hPa West 3.2 km/h 4.8 km/h 75% 0.0 mm 248 W/m2
12:01 18.8 °C 14.3 °C 1011.9 hPa WNW 6.4 km/h 8 km/h 75% 0.0 mm 237 W/m2
12:06 18.8 °C 14.1 °C 1011.9 hPa West 3.2 km/h 6.4 km/h 74% 0.0 mm 199 W/m2
12:11 18.9 °C 14.2 °C 1011.9 hPa NW 3.2 km/h 6.4 km/h 74% 0.0 mm 218 W/m2
12:16 19 °C 14.3 °C 1011.9 hPa NW 3.2 km/h 3.2 km/h 74% 0.0 mm 234 W/m2
12:21 19.1 °C 14.1 °C 1011.5 hPa NW 4.7 km/h 4.8 km/h 73% 0.0 mm 253 W/m2
12:26 19.2 °C 14.2 °C 1011.5 hPa North 3.2 km/h 4.8 km/h 73% 0.0 mm 267 W/m2
12:31 19.3 °C 14.1 °C 1011.5 hPa West 6.4 km/h 14.5 km/h 72% 0.0 mm 278 W/m2
12:36 19.3 °C 14.3 °C 1011.5 hPa West 4.7 km/h 8 km/h 73% 0.0 mm 278 W/m2
12:41 19.3 °C 14.1 °C 1011.5 hPa NNW 3.2 km/h 9.7 km/h 72% 0.0 mm 274 W/m2
12:46 19.5 °C 14.3 °C 1011.5 hPa NW 3.2 km/h 6.4 km/h 72% 0.0 mm 234 W/m2
12:51 19.6 °C 14.2 °C 1011.5 hPa WSW 6.4 km/h 9.7 km/h 71% 0.0 mm 162 W/m2
12:56 19.5 °C 13.9 °C 1011.5 hPa West 3.2 km/h 12.9 km/h 70% 0.0 mm 146 W/m2
13:01 19.4 °C 13.8 °C 1011.5 hPa West 4.7 km/h 9.7 km/h 70% 0.0 mm 162 W/m2
13:06 19.4 °C 14 °C 1011.5 hPa WNW 4.7 km/h 11.3 km/h 71% 0.0 mm 199 W/m2
13:11 19.6 °C 14.2 °C 1011.2 hPa WNW 3.2 km/h 4.8 km/h 71% 0.0 mm 262 W/m2
13:16 19.7 °C 13.9 °C 1011.2 hPa West 6.4 km/h 11.3 km/h 69% 0.0 mm 294 W/m2
13:21 19.8 °C 13.7 °C 1011.2 hPa WNW 4.7 km/h 12.9 km/h 68% 0.0 mm 274 W/m2
13:26 19.9 °C 14 °C 1011.2 hPa WSW 6.4 km/h 9.7 km/h 69% 0.0 mm 265 W/m2
13:31 20 °C 13.9 °C 1011.5 hPa WNW 9.7 km/h 12.9 km/h 68% 0.0 mm 250 W/m2
13:36 19.9 °C 13.6 °C 1011.2 hPa NW 9.7 km/h 12.9 km/h 67% 0.0 mm 211 W/m2
13:41 19.9 °C 13.6 °C 1011.2 hPa WSW 14.3 km/h 16.1 km/h 67% 0.0 mm 202 W/m2
13:46 19.8 °C 13.5 °C 1011.2 hPa West 6.4 km/h 14.5 km/h 67% 0.0 mm 209 W/m2
13:51 19.8 °C 13.5 °C 1011.2 hPa West 6.4 km/h 12.9 km/h 67% 0.0 mm 206 W/m2
13:56 19.8 °C 13.5 °C 1011.2 hPa WNW 3.2 km/h 12.9 km/h 67% 0.0 mm 230 W/m2
14:01 19.9 °C 13.6 °C 1011.2 hPa WSW 11.1 km/h 16.1 km/h 67% 0.0 mm 243 W/m2
14:06 19.9 °C 13.4 °C 1011.2 hPa WNW 3.2 km/h 11.3 km/h 66% 0.0 mm 236 W/m2
14:11 20 °C 13.5 °C 1011.2 hPa WNW 4.7 km/h 9.7 km/h 66% 0.0 mm 241 W/m2
14:16 20.1 °C 13.3 °C 1011.2 hPa WNW 6.4 km/h 11.3 km/h 65% 0.0 mm 241 W/m2
14:21 20.1 °C 13.1 °C 1010.8 hPa WNW 3.2 km/h 12.9 km/h 64% 0.0 mm 234 W/m2
14:26 20.3 °C 13.3 °C 1010.8 hPa West 3.2 km/h 9.7 km/h 64% 0.0 mm 234 W/m2
14:32 20.3 °C 13.3 °C 1010.8 hPa WNW 6.4 km/h 11.3 km/h 64% 0.0 mm 213 W/m2
14:37 20.4 °C 12.9 °C 1010.8 hPa SW 4.7 km/h 16.1 km/h 62% 0.0 mm 202 W/m2
14:42 20.4 °C 12.9 °C 1010.8 hPa West 6.4 km/h 11.3 km/h 62% 0.0 mm 209 W/m2
14:47 20.5 °C 13.2 °C 1010.8 hPa NW 1.4 km/h 16.1 km/h 63% 0.0 mm 207 W/m2
14:52 20.7 °C 13.2 °C 1010.8 hPa WSW 6.4 km/h 17.7 km/h 62% 0.0 mm 218 W/m2
14:57 20.7 °C 13.2 °C 1010.8 hPa West 4.7 km/h 6.4 km/h 62% 0.0 mm 250 W/m2
15:02 20.8 °C 13 °C 1010.8 hPa West 4.7 km/h 17.7 km/h 61% 0.0 mm 269 W/m2
15:07 20.9 °C 13.1 °C 1010.5 hPa WNW 6.4 km/h 6.4 km/h 61% 0.0 mm 294 W/m2
15:12 21.1 °C 13 °C 1010.5 hPa West 6.4 km/h 14.5 km/h 60% 0.0 mm 304 W/m2
15:17 21.2 °C 12.9 °C 1010.5 hPa NW 3.2 km/h 16.1 km/h 59% 0.0 mm 271 W/m2
15:22 21.3 °C 13 °C 1010.5 hPa West 4.7 km/h 9.7 km/h 59% 0.0 mm 237 W/m2
15:27 21.4 °C 14.8 °C 1010.5 hPa Calm   1.6 km/h 66% 0.0 mm 229 W/m2
15:32 21.3 °C 14.9 °C 1010.5 hPa ENE 7.9 km/h 9.7 km/h 67% 0.0 mm 236 W/m2
15:37 21.1 °C 15 °C 1010.5 hPa WNW 3.2 km/h 6.4 km/h 68% 0.0 mm 591 W/m2
15:42 21 °C 14.6 °C 1010.5 hPa NE 4.7 km/h 12.9 km/h 67% 0.0 mm 253 W/m2
15:47 20.8 °C 14.7 °C 1010.5 hPa West 4.7 km/h 4.8 km/h 68% 0.0 mm 239 W/m2
15:52 20.7 °C 14.8 °C 1010.5 hPa West 3.2 km/h 11.3 km/h 69% 0.0 mm 271 W/m2
15:57 20.5 °C 14.6 °C 1010.5 hPa West 3.2 km/h 8 km/h 69% 0.0 mm 237 W/m2
16:02 20.6 °C 14.9 °C 1010.5 hPa SSW 3.2 km/h 6.4 km/h 70% 0.0 mm 722 W/m2
16:07 20.9 °C 15.2 °C 1010.5 hPa NNW 1.4 km/h 9.7 km/h 70% 0.0 mm 540 W/m2
16:12 20.9 °C 15 °C 1010.5 hPa NE 1.4 km/h 1.6 km/h 69% 0.0 mm 279 W/m2
16:17 20.9 °C 15 °C 1010.5 hPa West 3.2 km/h 3.2 km/h 69% 0.0 mm 172 W/m2
Juneau County Weather
Compliments of Weather Underground - 2 mb